sensor_id;sensor_type;location;lat;lon;timestamp;P1;durP1;ratioP1;P2;durP2;ratioP2
47603;SDS011;33326;51.116;6.900;2022-08-21T00:00:08;16.42;;;8.85;;
47603;SDS011;33326;51.116;6.900;2022-08-21T00:05:14;17.63;;;9.98;;
47603;SDS011;33326;51.116;6.900;2022-08-21T00:10:17;17.85;;;10.80;;
47603;SDS011;33326;51.116;6.900;2022-08-21T00:15:22;15.93;;;9.75;;
47603;SDS011;33326;51.116;6.900;2022-08-21T00:20:27;15.32;;;9.52;;
47603;SDS011;33326;51.116;6.900;2022-08-21T00:25:29;18.92;;;10.40;;
47603;SDS011;33326;51.116;6.900;2022-08-21T00:30:31;16.60;;;10.32;;
47603;SDS011;33326;51.116;6.900;2022-08-21T00:35:37;15.25;;;9.43;;
47603;SDS011;33326;51.116;6.900;2022-08-21T00:40:41;14.25;;;9.32;;
47603;SDS011;33326;51.116;6.900;2022-08-21T00:45:44;16.00;;;9.27;;
47603;SDS011;33326;51.116;6.900;2022-08-21T00:50:51;15.73;;;10.02;;
47603;SDS011;33326;51.116;6.900;2022-08-21T00:55:56;15.93;;;10.68;;
47603;SDS011;33326;51.116;6.900;2022-08-21T01:06:08;19.17;;;10.90;;
47603;SDS011;33326;51.116;6.900;2022-08-21T01:11:10;18.60;;;11.00;;
47603;SDS011;33326;51.116;6.900;2022-08-21T01:16:13;15.80;;;10.23;;
47603;SDS011;33326;51.116;6.900;2022-08-21T01:21:20;14.93;;;10.02;;
47603;SDS011;33326;51.116;6.900;2022-08-21T01:26:25;16.00;;;9.73;;
47603;SDS011;33326;51.116;6.900;2022-08-21T01:31:28;19.15;;;10.23;;
47603;SDS011;33326;51.116;6.900;2022-08-21T01:36:33;16.70;;;10.57;;
47603;SDS011;33326;51.116;6.900;2022-08-21T01:41:35;14.73;;;9.68;;
47603;SDS011;33326;51.116;6.900;2022-08-21T01:46:36;16.08;;;9.75;;
47603;SDS011;33326;51.116;6.900;2022-08-21T01:51:40;17.20;;;10.52;;
47603;SDS011;33326;51.116;6.900;2022-08-21T01:56:42;17.02;;;10.25;;
47603;SDS011;33326;51.116;6.900;2022-08-21T02:01:46;16.02;;;9.50;;
47603;SDS011;33326;51.116;6.900;2022-08-21T02:06:50;18.27;;;10.02;;
47603;SDS011;33326;51.116;6.900;2022-08-21T02:11:52;15.07;;;9.80;;
47603;SDS011;33326;51.116;6.900;2022-08-21T02:16:54;14.90;;;10.02;;
47603;SDS011;33326;51.116;6.900;2022-08-21T02:21:57;16.20;;;10.52;;
47603;SDS011;33326;51.116;6.900;2022-08-21T02:26:59;19.08;;;10.55;;
47603;SDS011;33326;51.116;6.900;2022-08-21T02:32:01;14.82;;;10.45;;
47603;SDS011;33326;51.116;6.900;2022-08-21T02:37:04;16.55;;;9.75;;
47603;SDS011;33326;51.116;6.900;2022-08-21T02:42:06;24.40;;;10.50;;
47603;SDS011;33326;51.116;6.900;2022-08-21T02:47:08;19.50;;;9.95;;
47603;SDS011;33326;51.116;6.900;2022-08-21T02:52:11;16.00;;;10.23;;
47603;SDS011;33326;51.116;6.900;2022-08-21T02:57:14;18.95;;;10.77;;
47603;SDS011;33326;51.116;6.900;2022-08-21T03:02:16;15.32;;;10.13;;
47603;SDS011;33326;51.116;6.900;2022-08-21T03:07:19;14.00;;;9.82;;
47603;SDS011;33326;51.116;6.900;2022-08-21T03:12:21;17.15;;;10.27;;
47603;SDS011;33326;51.116;6.900;2022-08-21T03:17:23;17.40;;;10.30;;
47603;SDS011;33326;51.116;6.900;2022-08-21T03:22:27;17.63;;;10.73;;
47603;SDS011;33326;51.116;6.900;2022-08-21T03:27:29;15.77;;;9.82;;
47603;SDS011;33326;51.116;6.900;2022-08-21T03:32:30;18.40;;;11.10;;
47603;SDS011;33326;51.116;6.900;2022-08-21T03:37:34;18.25;;;10.45;;
47603;SDS011;33326;51.116;6.900;2022-08-21T03:42:36;17.27;;;10.27;;
47603;SDS011;33326;51.116;6.900;2022-08-21T03:47:38;18.75;;;10.63;;
47603;SDS011;33326;51.116;6.900;2022-08-21T03:52:41;18.27;;;10.32;;
47603;SDS011;33326;51.116;6.900;2022-08-21T03:57:43;17.05;;;10.60;;
47603;SDS011;33326;51.116;6.900;2022-08-21T04:02:45;16.90;;;9.70;;
47603;SDS011;33326;51.116;6.900;2022-08-21T04:07:49;17.35;;;10.23;;
47603;SDS011;33326;51.116;6.900;2022-08-21T04:12:51;17.73;;;9.98;;
47603;SDS011;33326;51.116;6.900;2022-08-21T04:17:53;16.13;;;10.50;;
47603;SDS011;33326;51.116;6.900;2022-08-21T04:22:56;15.85;;;10.88;;
47603;SDS011;33326;51.116;6.900;2022-08-21T04:27:58;16.42;;;10.15;;
47603;SDS011;33326;51.116;6.900;2022-08-21T04:33:02;18.13;;;10.45;;
47603;SDS011;33326;51.116;6.900;2022-08-21T04:38:05;18.25;;;10.88;;
47603;SDS011;33326;51.116;6.900;2022-08-21T04:43:08;18.65;;;10.27;;
47603;SDS011;33326;51.116;6.900;2022-08-21T04:48:11;18.08;;;10.70;;
47603;SDS011;33326;51.116;6.900;2022-08-21T04:53:16;20.20;;;10.50;;
47603;SDS011;33326;51.116;6.900;2022-08-21T04:58:21;15.15;;;10.32;;
47603;SDS011;33326;51.116;6.900;2022-08-21T05:03:25;17.45;;;10.88;;
47603;SDS011;33326;51.116;6.900;2022-08-21T05:08:29;17.23;;;10.38;;
47603;SDS011;33326;51.116;6.900;2022-08-21T05:13:31;15.93;;;10.68;;
47603;SDS011;33326;51.116;6.900;2022-08-21T05:18:33;16.23;;;10.80;;
47603;SDS011;33326;51.116;6.900;2022-08-21T05:23:36;17.65;;;10.23;;
47603;SDS011;33326;51.116;6.900;2022-08-21T05:28:38;16.38;;;10.02;;
47603;SDS011;33326;51.116;6.900;2022-08-21T05:33:40;17.38;;;10.15;;
47603;SDS011;33326;51.116;6.900;2022-08-21T05:38:43;15.35;;;10.20;;
47603;SDS011;33326;51.116;6.900;2022-08-21T05:43:45;15.82;;;9.80;;
47603;SDS011;33326;51.116;6.900;2022-08-21T05:48:46;15.75;;;10.30;;
47603;SDS011;33326;51.116;6.900;2022-08-21T05:53:49;13.85;;;10.32;;
47603;SDS011;33326;51.116;6.900;2022-08-21T05:58:51;17.33;;;10.57;;
47603;SDS011;33326;51.116;6.900;2022-08-21T06:03:53;14.63;;;10.32;;
47603;SDS011;33326;51.116;6.900;2022-08-21T06:08:56;18.40;;;11.02;;
47603;SDS011;33326;51.116;6.900;2022-08-21T06:13:58;15.10;;;10.40;;
47603;SDS011;33326;51.116;6.900;2022-08-21T06:19:00;18.33;;;11.32;;
47603;SDS011;33326;51.116;6.900;2022-08-21T06:24:04;18.55;;;11.00;;
47603;SDS011;33326;51.116;6.900;2022-08-21T06:29:06;16.92;;;11.45;;
47603;SDS011;33326;51.116;6.900;2022-08-21T06:34:10;16.88;;;10.88;;
47603;SDS011;33326;51.116;6.900;2022-08-21T06:39:14;18.95;;;10.35;;
47603;SDS011;33326;51.116;6.900;2022-08-21T06:44:16;16.00;;;10.57;;
47603;SDS011;33326;51.116;6.900;2022-08-21T06:49:19;17.98;;;10.80;;
47603;SDS011;33326;51.116;6.900;2022-08-21T06:54:22;21.02;;;10.68;;
47603;SDS011;33326;51.116;6.900;2022-08-21T06:59:23;18.15;;;10.07;;
47603;SDS011;33326;51.116;6.900;2022-08-21T07:04:25;16.00;;;10.90;;
47603;SDS011;33326;51.116;6.900;2022-08-21T07:09:29;16.08;;;9.48;;
47603;SDS011;33326;51.116;6.900;2022-08-21T07:14:31;16.85;;;7.38;;
47603;SDS011;33326;51.116;6.900;2022-08-21T07:19:33;18.63;;;7.63;;
47603;SDS011;33326;51.116;6.900;2022-08-21T07:24:36;11.30;;;6.60;;
47603;SDS011;33326;51.116;6.900;2022-08-21T07:29:38;15.75;;;6.35;;
47603;SDS011;33326;51.116;6.900;2022-08-21T07:34:40;18.95;;;6.57;;
47603;SDS011;33326;51.116;6.900;2022-08-21T07:39:43;14.80;;;7.00;;
47603;SDS011;33326;51.116;6.900;2022-08-21T07:44:48;16.92;;;5.55;;
47603;SDS011;33326;51.116;6.900;2022-08-21T07:49:50;12.05;;;5.40;;
47603;SDS011;33326;51.116;6.900;2022-08-21T07:54:53;12.82;;;4.88;;
47603;SDS011;33326;51.116;6.900;2022-08-21T07:59:55;11.80;;;4.55;;
47603;SDS011;33326;51.116;6.900;2022-08-21T08:04:58;12.20;;;4.25;;
47603;SDS011;33326;51.116;6.900;2022-08-21T08:10:02;11.18;;;3.70;;
47603;SDS011;33326;51.116;6.900;2022-08-21T08:15:08;8.10;;;3.85;;
47603;SDS011;33326;51.116;6.900;2022-08-21T08:20:13;10.73;;;3.65;;
47603;SDS011;33326;51.116;6.900;2022-08-21T08:25:18;8.38;;;3.03;;
47603;SDS011;33326;51.116;6.900;2022-08-21T08:30:21;10.48;;;3.35;;
47603;SDS011;33326;51.116;6.900;2022-08-21T08:35:24;10.38;;;2.83;;
47603;SDS011;33326;51.116;6.900;2022-08-21T08:40:30;10.82;;;2.42;;
47603;SDS011;33326;51.116;6.900;2022-08-21T08:45:40;7.75;;;2.30;;
47603;SDS011;33326;51.116;6.900;2022-08-21T08:50:49;7.55;;;2.50;;
47603;SDS011;33326;51.116;6.900;2022-08-21T08:55:55;6.15;;;2.38;;
47603;SDS011;33326;51.116;6.900;2022-08-21T09:00:58;8.60;;;2.40;;
47603;SDS011;33326;51.116;6.900;2022-08-21T09:06:03;9.38;;;2.42;;
47603;SDS011;33326;51.116;6.900;2022-08-21T09:11:15;6.80;;;2.25;;
47603;SDS011;33326;51.116;6.900;2022-08-21T09:16:29;8.80;;;2.50;;
47603;SDS011;33326;51.116;6.900;2022-08-21T09:21:43;8.88;;;2.38;;
47603;SDS011;33326;51.116;6.900;2022-08-21T09:26:54;7.63;;;2.30;;
47603;SDS011;33326;51.116;6.900;2022-08-21T09:32:03;8.40;;;2.15;;
47603;SDS011;33326;51.116;6.900;2022-08-21T09:37:17;7.65;;;1.83;;
47603;SDS011;33326;51.116;6.900;2022-08-21T09:42:25;9.35;;;2.35;;
47603;SDS011;33326;51.116;6.900;2022-08-21T09:47:28;8.05;;;1.92;;
47603;SDS011;33326;51.116;6.900;2022-08-21T09:52:30;6.00;;;1.90;;
47603;SDS011;33326;51.116;6.900;2022-08-21T09:57:34;6.80;;;2.20;;
47603;SDS011;33326;51.116;6.900;2022-08-21T10:02:40;7.90;;;2.45;;
47603;SDS011;33326;51.116;6.900;2022-08-21T10:07:42;6.30;;;2.25;;
47603;SDS011;33326;51.116;6.900;2022-08-21T10:12:48;6.53;;;1.85;;
47603;SDS011;33326;51.116;6.900;2022-08-21T10:18:02;7.28;;;1.95;;
47603;SDS011;33326;51.116;6.900;2022-08-21T10:23:20;7.43;;;2.03;;
47603;SDS011;33326;51.116;6.900;2022-08-21T10:28:36;5.15;;;2.10;;
47603;SDS011;33326;51.116;6.900;2022-08-21T10:33:50;8.85;;;1.95;;
47603;SDS011;33326;51.116;6.900;2022-08-21T10:39:03;5.70;;;1.75;;
47603;SDS011;33326;51.116;6.900;2022-08-21T10:44:21;4.10;;;1.88;;
47603;SDS011;33326;51.116;6.900;2022-08-21T10:49:32;6.93;;;1.95;;
47603;SDS011;33326;51.116;6.900;2022-08-21T10:59:50;8.73;;;2.15;;
47603;SDS011;33326;51.116;6.900;2022-08-21T11:05:00;8.30;;;2.13;;
47603;SDS011;33326;51.116;6.900;2022-08-21T11:10:08;5.75;;;2.03;;
47603;SDS011;33326;51.116;6.900;2022-08-21T11:15:23;8.50;;;2.05;;
47603;SDS011;33326;51.116;6.900;2022-08-21T11:20:29;5.07;;;1.90;;
47603;SDS011;33326;51.116;6.900;2022-08-21T11:25:36;7.03;;;1.65;;
47603;SDS011;33326;51.116;6.900;2022-08-21T11:30:48;7.65;;;2.15;;
47603;SDS011;33326;51.116;6.900;2022-08-21T11:36:00;7.82;;;1.85;;
47603;SDS011;33326;51.116;6.900;2022-08-21T11:41:13;6.97;;;2.38;;
47603;SDS011;33326;51.116;6.900;2022-08-21T11:46:28;5.63;;;2.05;;
47603;SDS011;33326;51.116;6.900;2022-08-21T11:51:36;8.30;;;2.05;;
47603;SDS011;33326;51.116;6.900;2022-08-21T11:56:43;6.82;;;1.50;;
47603;SDS011;33326;51.116;6.900;2022-08-21T12:01:51;8.68;;;2.20;;
47603;SDS011;33326;51.116;6.900;2022-08-21T12:06:55;5.32;;;1.77;;
47603;SDS011;33326;51.116;6.900;2022-08-21T12:12:00;5.57;;;1.70;;
47603;SDS011;33326;51.116;6.900;2022-08-21T12:17:07;6.35;;;1.83;;
47603;SDS011;33326;51.116;6.900;2022-08-21T12:22:18;6.10;;;1.52;;
47603;SDS011;33326;51.116;6.900;2022-08-21T12:27:21;5.78;;;1.80;;
47603;SDS011;33326;51.116;6.900;2022-08-21T12:32:29;5.53;;;1.90;;
47603;SDS011;33326;51.116;6.900;2022-08-21T12:37:44;3.50;;;1.42;;
47603;SDS011;33326;51.116;6.900;2022-08-21T12:42:50;4.70;;;1.52;;
47603;SDS011;33326;51.116;6.900;2022-08-21T12:47:56;6.15;;;1.67;;
47603;SDS011;33326;51.116;6.900;2022-08-21T12:53:04;5.20;;;1.90;;
47603;SDS011;33326;51.116;6.900;2022-08-21T12:58:16;4.85;;;1.70;;
47603;SDS011;33326;51.116;6.900;2022-08-21T13:03:21;6.60;;;1.90;;
47603;SDS011;33326;51.116;6.900;2022-08-21T13:08:24;5.63;;;1.60;;
47603;SDS011;33326;51.116;6.900;2022-08-21T13:13:29;4.75;;;1.77;;
47603;SDS011;33326;51.116;6.900;2022-08-21T13:18:34;5.13;;;1.70;;
47603;SDS011;33326;51.116;6.900;2022-08-21T13:23:52;3.95;;;1.75;;
47603;SDS011;33326;51.116;6.900;2022-08-21T13:28:54;5.40;;;1.80;;
47603;SDS011;33326;51.116;6.900;2022-08-21T13:34:12;4.33;;;1.67;;
47603;SDS011;33326;51.116;6.900;2022-08-21T13:39:18;2.97;;;1.50;;
47603;SDS011;33326;51.116;6.900;2022-08-21T13:44:21;4.82;;;2.03;;
47603;SDS011;33326;51.116;6.900;2022-08-21T13:49:29;3.75;;;1.80;;
47603;SDS011;33326;51.116;6.900;2022-08-21T13:54:34;3.33;;;1.50;;
47603;SDS011;33326;51.116;6.900;2022-08-21T13:59:36;2.72;;;1.20;;
47603;SDS011;33326;51.116;6.900;2022-08-21T14:04:42;3.03;;;1.15;;
47603;SDS011;33326;51.116;6.900;2022-08-21T14:09:48;3.45;;;1.30;;
47603;SDS011;33326;51.116;6.900;2022-08-21T14:14:50;2.42;;;1.20;;
47603;SDS011;33326;51.116;6.900;2022-08-21T14:19:55;3.03;;;1.13;;
47603;SDS011;33326;51.116;6.900;2022-08-21T14:25:01;4.65;;;1.38;;
47603;SDS011;33326;51.116;6.900;2022-08-21T14:30:09;2.60;;;1.52;;
47603;SDS011;33326;51.116;6.900;2022-08-21T14:35:14;2.95;;;1.30;;
47603;SDS011;33326;51.116;6.900;2022-08-21T14:40:18;4.82;;;1.20;;
47603;SDS011;33326;51.116;6.900;2022-08-21T14:45:23;4.97;;;1.45;;
47603;SDS011;33326;51.116;6.900;2022-08-21T14:50:30;4.53;;;1.50;;
47603;SDS011;33326;51.116;6.900;2022-08-21T14:55:32;3.28;;;1.55;;
47603;SDS011;33326;51.116;6.900;2022-08-21T15:00:56;3.85;;;1.10;;
47603;SDS011;33326;51.116;6.900;2022-08-21T15:06:00;3.95;;;1.48;;
47603;SDS011;33326;51.116;6.900;2022-08-21T15:11:04;2.85;;;1.48;;
47603;SDS011;33326;51.116;6.900;2022-08-21T15:16:07;3.05;;;1.40;;
47603;SDS011;33326;51.116;6.900;2022-08-21T15:21:13;5.38;;;1.27;;
47603;SDS011;33326;51.116;6.900;2022-08-21T15:26:14;2.28;;;1.40;;
47603;SDS011;33326;51.116;6.900;2022-08-21T15:31:16;3.38;;;1.40;;
47603;SDS011;33326;51.116;6.900;2022-08-21T15:36:20;3.72;;;1.58;;
47603;SDS011;33326;51.116;6.900;2022-08-21T15:41:21;2.88;;;1.30;;
47603;SDS011;33326;51.116;6.900;2022-08-21T15:46:23;3.17;;;1.52;;
47603;SDS011;33326;51.116;6.900;2022-08-21T15:51:27;3.63;;;1.30;;
47603;SDS011;33326;51.116;6.900;2022-08-21T15:56:32;2.58;;;1.27;;
47603;SDS011;33326;51.116;6.900;2022-08-21T16:01:36;4.53;;;1.50;;
47603;SDS011;33326;51.116;6.900;2022-08-21T16:06:40;4.13;;;1.42;;
47603;SDS011;33326;51.116;6.900;2022-08-21T16:11:42;3.08;;;1.20;;
47603;SDS011;33326;51.116;6.900;2022-08-21T16:16:44;2.58;;;1.40;;
47603;SDS011;33326;51.116;6.900;2022-08-21T16:21:48;3.30;;;1.05;;
47603;SDS011;33326;51.116;6.900;2022-08-21T16:26:50;3.47;;;1.20;;
47603;SDS011;33326;51.116;6.900;2022-08-21T16:31:52;8.63;;;1.60;;
47603;SDS011;33326;51.116;6.900;2022-08-21T16:36:55;8.20;;;1.60;;
47603;SDS011;33326;51.116;6.900;2022-08-21T16:42:00;5.18;;;1.38;;
47603;SDS011;33326;51.116;6.900;2022-08-21T16:47:02;4.10;;;1.63;;
47603;SDS011;33326;51.116;6.900;2022-08-21T16:52:05;3.78;;;1.50;;
47603;SDS011;33326;51.116;6.900;2022-08-21T16:57:07;3.85;;;1.73;;
47603;SDS011;33326;51.116;6.900;2022-08-21T17:02:14;3.67;;;1.50;;
47603;SDS011;33326;51.116;6.900;2022-08-21T17:07:25;5.00;;;1.40;;
47603;SDS011;33326;51.116;6.900;2022-08-21T17:12:27;2.33;;;1.20;;
47603;SDS011;33326;51.116;6.900;2022-08-21T17:17:29;3.50;;;1.40;;
47603;SDS011;33326;51.116;6.900;2022-08-21T17:22:32;5.28;;;1.30;;
47603;SDS011;33326;51.116;6.900;2022-08-21T17:27:34;4.35;;;1.30;;
47603;SDS011;33326;51.116;6.900;2022-08-21T17:32:36;6.13;;;1.80;;
47603;SDS011;33326;51.116;6.900;2022-08-21T17:37:40;5.20;;;1.40;;
47603;SDS011;33326;51.116;6.900;2022-08-21T17:42:42;3.63;;;1.35;;
47603;SDS011;33326;51.116;6.900;2022-08-21T17:47:45;6.47;;;3.40;;
47603;SDS011;33326;51.116;6.900;2022-08-21T17:52:49;5.22;;;1.90;;
47603;SDS011;33326;51.116;6.900;2022-08-21T17:57:51;6.10;;;1.65;;
47603;SDS011;33326;51.116;6.900;2022-08-21T18:02:56;6.18;;;1.77;;
47603;SDS011;33326;51.116;6.900;2022-08-21T18:08:02;5.88;;;1.60;;
47603;SDS011;33326;51.116;6.900;2022-08-21T18:13:05;4.13;;;1.40;;
47603;SDS011;33326;51.116;6.900;2022-08-21T18:18:08;5.20;;;1.48;;
47603;SDS011;33326;51.116;6.900;2022-08-21T18:23:12;4.45;;;1.60;;
47603;SDS011;33326;51.116;6.900;2022-08-21T18:28:14;5.80;;;2.10;;
47603;SDS011;33326;51.116;6.900;2022-08-21T18:33:17;6.00;;;1.63;;
47603;SDS011;33326;51.116;6.900;2022-08-21T18:38:20;6.25;;;1.80;;
47603;SDS011;33326;51.116;6.900;2022-08-21T18:43:23;5.05;;;1.80;;
47603;SDS011;33326;51.116;6.900;2022-08-21T18:48:24;5.43;;;1.67;;
47603;SDS011;33326;51.116;6.900;2022-08-21T18:53:27;6.15;;;1.85;;
47603;SDS011;33326;51.116;6.900;2022-08-21T18:58:29;6.65;;;2.00;;
47603;SDS011;33326;51.116;6.900;2022-08-21T19:03:31;5.00;;;1.60;;
47603;SDS011;33326;51.116;6.900;2022-08-21T19:08:35;5.85;;;1.90;;
47603;SDS011;33326;51.116;6.900;2022-08-21T19:13:37;3.88;;;1.73;;
47603;SDS011;33326;51.116;6.900;2022-08-21T19:18:39;6.47;;;1.65;;
47603;SDS011;33326;51.116;6.900;2022-08-21T19:23:43;6.38;;;1.92;;
47603;SDS011;33326;51.116;6.900;2022-08-21T19:28:48;4.78;;;1.77;;
47603;SDS011;33326;51.116;6.900;2022-08-21T19:33:52;7.97;;;2.20;;
47603;SDS011;33326;51.116;6.900;2022-08-21T19:39:00;7.32;;;2.60;;
47603;SDS011;33326;51.116;6.900;2022-08-21T19:44:03;6.20;;;2.22;;
47603;SDS011;33326;51.116;6.900;2022-08-21T19:49:06;7.50;;;2.65;;
47603;SDS011;33326;51.116;6.900;2022-08-21T19:54:16;6.18;;;2.03;;
47603;SDS011;33326;51.116;6.900;2022-08-21T19:59:24;6.13;;;2.30;;
47603;SDS011;33326;51.116;6.900;2022-08-21T20:04:27;5.25;;;2.40;;
47603;SDS011;33326;51.116;6.900;2022-08-21T20:09:30;7.18;;;2.42;;
47603;SDS011;33326;51.116;6.900;2022-08-21T20:14:32;6.40;;;2.72;;
47603;SDS011;33326;51.116;6.900;2022-08-21T20:19:36;8.43;;;2.67;;
47603;SDS011;33326;51.116;6.900;2022-08-21T20:24:40;4.50;;;2.50;;
47603;SDS011;33326;51.116;6.900;2022-08-21T20:29:42;6.65;;;2.58;;
47603;SDS011;33326;51.116;6.900;2022-08-21T20:34:44;5.65;;;2.60;;
47603;SDS011;33326;51.116;6.900;2022-08-21T20:39:47;10.00;;;3.17;;
47603;SDS011;33326;51.116;6.900;2022-08-21T20:44:53;6.93;;;2.70;;
47603;SDS011;33326;51.116;6.900;2022-08-21T20:49:56;7.95;;;2.88;;
47603;SDS011;33326;51.116;6.900;2022-08-21T20:55:07;9.70;;;2.20;;
47603;SDS011;33326;51.116;6.900;2022-08-21T21:00:13;7.78;;;2.33;;
47603;SDS011;33326;51.116;6.900;2022-08-21T21:05:19;9.57;;;2.80;;
47603;SDS011;33326;51.116;6.900;2022-08-21T21:10:26;6.30;;;2.30;;
47603;SDS011;33326;51.116;6.900;2022-08-21T21:15:31;8.35;;;2.28;;
47603;SDS011;33326;51.116;6.900;2022-08-21T21:20:36;7.95;;;2.38;;
47603;SDS011;33326;51.116;6.900;2022-08-21T21:25:43;5.32;;;1.90;;
47603;SDS011;33326;51.116;6.900;2022-08-21T21:30:49;7.22;;;2.28;;
47603;SDS011;33326;51.116;6.900;2022-08-21T21:35:52;6.90;;;2.28;;
47603;SDS011;33326;51.116;6.900;2022-08-21T21:41:03;5.40;;;2.00;;
47603;SDS011;33326;51.116;6.900;2022-08-21T21:46:18;8.00;;;2.30;;
47603;SDS011;33326;51.116;6.900;2022-08-21T21:51:29;8.35;;;2.30;;
47603;SDS011;33326;51.116;6.900;2022-08-21T21:56:50;8.57;;;2.50;;
47603;SDS011;33326;51.116;6.900;2022-08-21T22:02:02;6.15;;;2.10;;
47603;SDS011;33326;51.116;6.900;2022-08-21T22:07:10;8.63;;;2.08;;
47603;SDS011;33326;51.116;6.900;2022-08-21T22:12:30;5.47;;;2.00;;
47603;SDS011;33326;51.116;6.900;2022-08-21T22:17:41;6.28;;;2.00;;
47603;SDS011;33326;51.116;6.900;2022-08-21T22:22:46;4.87;;;1.93;;
47603;SDS011;33326;51.116;6.900;2022-08-21T22:27:54;7.70;;;2.20;;
47603;SDS011;33326;51.116;6.900;2022-08-21T22:33:00;6.82;;;2.35;;
47603;SDS011;33326;51.116;6.900;2022-08-21T22:38:17;9.60;;;2.45;;
47603;SDS011;33326;51.116;6.900;2022-08-21T22:43:29;5.57;;;2.50;;
47603;SDS011;33326;51.116;6.900;2022-08-21T22:48:32;8.20;;;2.45;;
47603;SDS011;33326;51.116;6.900;2022-08-21T22:53:38;5.20;;;2.00;;
47603;SDS011;33326;51.116;6.900;2022-08-21T22:58:52;5.82;;;2.20;;
47603;SDS011;33326;51.116;6.900;2022-08-21T23:03:57;6.60;;;2.58;;
47603;SDS011;33326;51.116;6.900;2022-08-21T23:09:16;7.85;;;2.40;;
47603;SDS011;33326;51.116;6.900;2022-08-21T23:14:23;9.27;;;2.72;;
47603;SDS011;33326;51.116;6.900;2022-08-21T23:19:29;7.35;;;2.45;;
47603;SDS011;33326;51.116;6.900;2022-08-21T23:24:45;6.22;;;2.65;;
47603;SDS011;33326;51.116;6.900;2022-08-21T23:30:00;8.48;;;2.47;;
47603;SDS011;33326;51.116;6.900;2022-08-21T23:35:09;6.70;;;2.58;;
47603;SDS011;33326;51.116;6.900;2022-08-21T23:40:35;7.22;;;2.47;;
47603;SDS011;33326;51.116;6.900;2022-08-21T23:45:44;6.25;;;2.20;;
47603;SDS011;33326;51.116;6.900;2022-08-21T23:50:59;8.27;;;2.40;;
47603;SDS011;33326;51.116;6.900;2022-08-21T23:56:06;5.47;;;2.25;;
